createdAt,value
2023-02-20T00:01:32.903Z,57.38
2023-02-20T00:03:59.857Z,58.88
2023-02-20T00:06:26.700Z,54.33
2023-02-20T00:08:53.663Z,58.05
2023-02-20T00:11:20.695Z,52.08
2023-02-20T00:13:49.860Z,50.28
2023-02-20T00:16:16.986Z,53.23
2023-02-20T00:18:44.710Z,48.25
2023-02-20T00:21:11.632Z,51.08
2023-02-20T00:23:38.555Z,51.92
2023-02-20T00:26:09.700Z,47.30
2023-02-20T00:28:39.773Z,54.92
2023-02-20T00:31:08.065Z,53.90
2023-02-20T00:33:36.977Z,49.78
2023-02-20T00:36:04.673Z,49.67
2023-02-20T00:38:31.730Z,52.90
2023-02-20T00:41:01.363Z,49.90
2023-02-20T00:43:29.008Z,45.65
2023-02-20T00:45:56.014Z,44.13
2023-02-20T00:48:23.904Z,45.55
2023-02-20T00:51:11.432Z,36.00
2023-02-20T00:53:39.156Z,30.48
2023-02-20T00:56:06.379Z,36.05
2023-02-20T00:58:33.648Z,33.47
2023-02-20T01:01:00.477Z,35.28
2023-02-20T01:03:27.393Z,33.28
2023-02-20T01:05:54.233Z,37.30
2023-02-20T01:08:21.226Z,29.90
2023-02-20T01:10:48.079Z,29.60
2023-02-20T01:13:14.999Z,28.17
2023-02-20T01:15:44.024Z,26.23
2023-02-20T01:18:11.386Z,23.80
2023-02-20T01:20:38.494Z,21.85
2023-02-20T01:23:05.490Z,24.15
2023-02-20T01:25:35.016Z,22.92
2023-02-20T01:28:02.060Z,20.92
2023-02-20T01:30:29.101Z,22.13
2023-02-20T01:32:56.007Z,22.92
2023-02-20T01:35:22.931Z,22.90
2023-02-20T01:37:50.451Z,19.45
2023-02-20T01:40:24.471Z,19.48
2023-02-20T01:42:51.452Z,20.40
2023-02-20T01:45:24.453Z,18.70
2023-02-20T01:47:53.931Z,19.30
2023-02-20T01:50:26.309Z,16.13
2023-02-20T01:52:57.058Z,16.13
2023-02-20T01:55:29.857Z,17.52
2023-02-20T01:58:28.748Z,16.05
2023-02-20T02:00:57.717Z,16.20
2023-02-20T02:03:31.531Z,14.25
2023-02-20T02:06:01.683Z,14.75
2023-02-20T02:11:16.986Z,13.02
2023-02-20T02:13:44.658Z,14.40
2023-02-20T02:16:39.433Z,18.15
2023-02-20T02:19:32.222Z,14.18
2023-02-20T02:22:21.987Z,16.90
2023-02-20T02:25:14.210Z,14.60
2023-02-20T02:28:05.609Z,15.02
2023-02-20T02:30:47.130Z,16.60
2023-02-20T02:33:22.844Z,15.32
2023-02-20T02:36:02.764Z,16.95
2023-02-20T02:38:53.226Z,16.50
2023-02-20T02:41:41.771Z,14.75
2023-02-20T02:44:20.608Z,15.52
2023-02-20T02:47:07.922Z,15.43
2023-02-20T02:49:43.768Z,14.10
2023-02-20T02:52:12.017Z,14.35
2023-02-20T02:54:39.838Z,14.30
2023-02-20T02:57:36.292Z,16.08
2023-02-20T03:00:16.954Z,13.80
2023-02-20T03:02:49.713Z,15.43
2023-02-20T03:05:20.424Z,15.23
2023-02-20T03:07:53.929Z,14.73
2023-02-20T03:10:32.042Z,14.23
2023-02-20T03:13:04.304Z,13.23
2023-02-20T03:15:42.888Z,13.05
2023-02-20T03:18:40.152Z,13.57
2023-02-20T03:21:17.957Z,13.95
2023-02-20T03:23:54.018Z,13.80
2023-02-20T03:26:27.040Z,13.52
2023-02-20T03:29:01.845Z,14.65
2023-02-20T03:31:41.868Z,13.45
2023-02-20T03:34:38.696Z,13.73
2023-02-20T03:37:31.577Z,13.43
2023-02-20T03:40:21.644Z,16.65
2023-02-20T03:43:15.165Z,12.75
2023-02-20T03:45:43.742Z,13.13
2023-02-20T03:48:19.869Z,13.82
2023-02-20T03:51:05.904Z,14.43
2023-02-20T03:53:45.556Z,14.43
2023-02-20T03:56:17.703Z,14.43
2023-02-20T03:58:50.146Z,13.77
2023-02-20T04:01:20.651Z,14.32
2023-02-20T04:03:49.999Z,13.98
2023-02-20T04:06:18.841Z,13.83
2023-02-20T04:08:45.573Z,15.68
2023-02-20T04:11:26.505Z,14.48
2023-02-20T04:13:56.434Z,13.38
2023-02-20T04:16:24.695Z,18.10
2023-02-20T04:18:52.192Z,18.25
2023-02-20T04:21:28.374Z,18.05
2023-02-20T04:24:21.169Z,15.60
2023-02-20T04:26:48.513Z,16.83
2023-02-20T04:29:15.590Z,15.40
2023-02-20T04:31:42.758Z,15.18
2023-02-20T04:34:10.220Z,15.73
2023-02-20T04:36:37.532Z,15.77
2023-02-20T04:39:05.672Z,17.48
2023-02-20T04:41:33.711Z,15.57
2023-02-20T04:44:19.279Z,16.00
2023-02-20T04:46:48.948Z,14.52
2023-02-20T04:49:16.265Z,17.70
2023-02-20T04:51:48.362Z,15.80
2023-02-20T04:54:15.676Z,16.85
2023-02-20T04:56:42.534Z,15.90
2023-02-20T04:59:10.272Z,17.55
2023-02-20T05:01:37.698Z,19.33
2023-02-20T05:04:05.000Z,17.13
2023-02-20T05:06:32.024Z,18.48
2023-02-20T05:08:59.294Z,20.75
2023-02-20T05:11:26.097Z,21.80
2023-02-20T05:13:52.982Z,22.85
2023-02-20T05:16:19.882Z,22.67
2023-02-20T05:18:46.784Z,25.20
2023-02-20T05:21:33.334Z,22.52
2023-02-20T05:24:00.214Z,25.48
2023-02-20T05:26:27.164Z,27.00
2023-02-20T05:28:54.114Z,26.98
2023-02-20T05:31:21.089Z,26.52
2023-02-20T05:33:48.020Z,27.08
2023-02-20T05:36:15.134Z,34.28
2023-02-20T05:38:47.920Z,31.52
2023-02-20T05:41:19.144Z,28.98
2023-02-20T05:43:46.567Z,33.40
2023-02-20T05:46:13.582Z,30.08
2023-02-20T05:48:40.777Z,32.70
2023-02-20T05:51:07.680Z,31.60
2023-02-20T05:53:34.703Z,32.72
2023-02-20T05:56:01.555Z,38.28
2023-02-20T05:58:28.542Z,38.08
2023-02-20T06:00:55.376Z,37.58
2023-02-20T06:03:22.254Z,39.95
2023-02-20T06:05:49.147Z,47.35
2023-02-20T06:08:16.118Z,39.35
2023-02-20T06:10:42.967Z,40.60
2023-02-20T06:13:09.919Z,49.30
2023-02-20T06:15:36.757Z,52.10
2023-02-20T06:18:03.725Z,50.20
2023-02-20T06:20:30.545Z,58.33
2023-02-20T06:22:57.713Z,55.80
2023-02-20T06:25:24.843Z,53.10
2023-02-20T06:27:51.772Z,51.90
2023-02-20T06:30:18.809Z,57.75
2023-02-20T06:32:46.277Z,54.47
2023-02-20T06:35:13.134Z,57.78
2023-02-20T06:37:40.192Z,53.85
2023-02-20T06:40:07.470Z,51.38
2023-02-20T06:42:35.655Z,58.67
2023-02-20T06:45:02.785Z,46.50
2023-02-20T06:47:29.686Z,49.88
2023-02-20T06:49:56.520Z,58.28
2023-02-20T06:52:23.407Z,50.08
2023-02-20T06:54:51.655Z,46.30
2023-02-20T06:57:18.545Z,49.22
2023-02-20T06:59:47.904Z,41.30
2023-02-20T07:02:16.966Z,34.92
2023-02-20T07:04:48.553Z,35.45
2023-02-20T07:07:15.509Z,36.13
2023-02-20T07:09:44.510Z,41.75
2023-02-20T07:12:11.748Z,37.50
2023-02-20T07:14:38.682Z,36.75
2023-02-20T07:17:05.683Z,35.75
2023-02-20T07:19:32.475Z,43.72
2023-02-20T07:21:59.552Z,35.47
2023-02-20T07:24:26.479Z,37.03
2023-02-20T07:26:57.592Z,38.42
2023-02-20T07:29:24.469Z,34.75
2023-02-20T07:31:51.455Z,29.58
2023-02-20T07:34:18.433Z,32.55
2023-02-20T07:36:45.899Z,31.88
2023-02-20T07:39:13.579Z,32.05
2023-02-20T07:41:41.159Z,35.78
2023-02-20T07:44:28.050Z,31.52
2023-02-20T07:46:54.980Z,33.22
2023-02-20T07:49:21.853Z,34.03
2023-02-20T07:51:48.868Z,30.58
2023-02-20T07:54:15.734Z,25.25
2023-02-20T07:56:42.933Z,32.20
2023-02-20T07:59:11.091Z,28.05
2023-02-20T08:01:38.266Z,32.85
2023-02-20T08:04:05.459Z,20.15
2023-02-20T08:06:32.452Z,16.33
2023-02-20T08:08:59.337Z,19.23
2023-02-20T08:11:26.312Z,24.05
2023-02-20T08:13:55.805Z,10.93
2023-02-20T08:16:23.213Z,17.25
2023-02-20T08:18:50.208Z,16.00
2023-02-20T08:21:17.419Z,17.42
2023-02-20T08:23:44.324Z,12.27
2023-02-20T08:26:11.712Z,15.25
2023-02-20T08:28:39.433Z,15.63
2023-02-20T08:31:06.792Z,13.10
2023-02-20T08:33:33.684Z,10.15
2023-02-20T08:36:00.694Z,10.18
2023-02-20T08:38:36.201Z,12.50
2023-02-20T08:41:08.793Z,15.02
2023-02-20T08:43:37.337Z,14.68
2023-02-20T08:46:06.264Z,13.45
2023-02-20T08:48:34.357Z,14.13
2023-02-20T08:51:01.414Z,15.65
2023-02-20T08:53:28.385Z,13.88
2023-02-20T08:55:55.406Z,15.23
2023-02-20T08:58:23.977Z,12.23
2023-02-20T09:00:51.708Z,12.30
2023-02-20T09:03:19.135Z,14.27
2023-02-20T09:05:48.410Z,10.27
2023-02-20T09:08:15.881Z,7.38
2023-02-20T09:10:42.882Z,6.95
2023-02-20T09:13:10.969Z,7.65
2023-02-20T09:15:40.194Z,9.50
2023-02-20T09:18:10.267Z,7.07
2023-02-20T09:23:05.221Z,7.60
2023-02-20T09:25:32.200Z,7.90
2023-02-20T09:28:00.168Z,6.22
2023-02-20T09:30:27.201Z,6.05
2023-02-20T09:32:54.729Z,6.50
2023-02-20T09:35:26.495Z,6.47
2023-02-20T09:37:53.740Z,9.43
2023-02-20T09:40:32.295Z,7.00
2023-02-20T09:43:26.630Z,9.60
2023-02-20T09:46:05.660Z,9.30
2023-02-20T09:48:51.326Z,8.75
2023-02-20T09:51:22.599Z,9.10
2023-02-20T09:53:56.562Z,8.85
2023-02-20T09:56:28.895Z,9.85
2023-02-20T09:59:08.043Z,11.18
2023-02-20T10:01:37.975Z,9.67
2023-02-20T10:04:07.773Z,9.25
2023-02-20T10:06:36.123Z,12.88
2023-02-20T10:09:04.955Z,9.43
2023-02-20T10:11:40.859Z,9.90
2023-02-20T10:14:13.241Z,8.95
2023-02-20T10:17:21.265Z,11.05
2023-02-20T10:19:53.910Z,11.27
2023-02-20T10:22:29.935Z,10.02
2023-02-20T10:25:15.863Z,9.65
2023-02-20T10:27:55.257Z,11.52
2023-02-20T10:30:31.803Z,14.73
2023-02-20T10:33:15.470Z,12.88
2023-02-20T10:36:07.361Z,12.10
2023-02-20T10:38:40.322Z,14.35
2023-02-20T10:41:33.299Z,13.73
2023-02-20T10:44:31.018Z,14.30
2023-02-20T10:47:16.700Z,14.35
2023-02-20T10:50:13.068Z,14.95
2023-02-20T10:52:59.850Z,15.52
2023-02-20T10:55:31.335Z,17.13
2023-02-20T10:58:06.363Z,15.73
2023-02-20T11:00:39.806Z,14.02
2023-02-20T11:03:12.665Z,14.80
2023-02-20T11:05:47.034Z,18.10
2023-02-20T11:08:14.400Z,13.80
2023-02-20T11:10:41.196Z,13.57
2023-02-20T11:13:16.262Z,12.27
2023-02-20T11:15:45.369Z,11.57
2023-02-20T11:18:26.395Z,12.73
2023-02-20T11:20:56.653Z,14.38
2023-02-20T11:23:44.082Z,12.43
2023-02-20T11:26:21.941Z,13.00
2023-02-20T11:29:04.552Z,13.35
2023-02-20T11:31:31.958Z,12.05
2023-02-20T11:34:02.188Z,12.18
2023-02-20T11:36:37.248Z,12.52
2023-02-20T11:39:18.054Z,11.93
2023-02-20T11:41:44.991Z,12.35
2023-02-20T11:44:14.543Z,12.38
2023-02-20T11:46:41.744Z,11.98
2023-02-20T11:49:11.915Z,13.18
2023-02-20T11:51:44.132Z,14.15
2023-02-20T11:54:16.913Z,16.25
2023-02-20T11:57:06.421Z,13.43
2023-02-20T11:59:36.443Z,13.43
2023-02-20T12:04:39.314Z,13.35
2023-02-20T12:07:22.616Z,11.52
2023-02-20T12:09:55.477Z,19.17
2023-02-20T12:12:24.034Z,12.57
2023-02-20T12:14:51.379Z,12.82
2023-02-20T12:17:51.419Z,18.27
2023-02-20T12:20:22.524Z,13.38
2023-02-20T12:23:16.965Z,12.95
2023-02-20T12:26:13.093Z,11.73
2023-02-20T12:28:53.745Z,11.48
2023-02-20T12:31:55.169Z,11.82
2023-02-20T12:34:39.209Z,11.75
2023-02-20T12:37:13.873Z,10.85
2023-02-20T12:39:55.914Z,11.75
2023-02-20T12:42:33.172Z,10.40
2023-02-20T12:45:41.238Z,10.25
2023-02-20T12:48:31.019Z,11.60
2023-02-20T12:51:00.582Z,10.40
2023-02-20T12:53:41.703Z,12.15
2023-02-20T12:56:27.510Z,10.77
2023-02-20T12:59:07.823Z,11.65
2023-02-20T13:01:40.206Z,11.02
2023-02-20T13:04:17.480Z,12.18
2023-02-20T13:06:50.326Z,10.40
2023-02-20T13:09:38.849Z,11.05
2023-02-20T13:12:17.124Z,10.80
2023-02-20T13:15:28.860Z,10.93
2023-02-20T13:18:21.448Z,12.20
2023-02-20T13:20:54.199Z,11.02
2023-02-20T13:23:21.173Z,11.55
2023-02-20T13:25:49.707Z,11.23
2023-02-20T13:28:25.481Z,14.05
2023-02-20T13:31:19.564Z,11.27
2023-02-20T13:34:08.070Z,10.60
2023-02-20T13:36:39.819Z,11.98
2023-02-20T13:39:25.508Z,12.27
2023-02-20T13:42:28.846Z,10.88
2023-02-20T13:44:57.370Z,11.90
2023-02-20T13:47:37.944Z,11.52
2023-02-20T13:50:29.778Z,11.75
2023-02-20T13:52:58.110Z,11.50
2023-02-20T13:55:27.500Z,11.57
2023-02-20T13:57:58.772Z,11.02
2023-02-20T14:00:46.906Z,11.68
2023-02-20T14:03:29.267Z,15.15
2023-02-20T14:06:04.132Z,11.55
2023-02-20T14:08:31.263Z,11.10
2023-02-20T14:11:12.377Z,11.35
2023-02-20T14:13:42.318Z,10.82
2023-02-20T14:16:28.250Z,11.88
2023-02-20T14:19:06.082Z,13.60
2023-02-20T14:21:35.248Z,11.00
2023-02-20T14:24:22.077Z,11.40
2023-02-20T14:26:51.834Z,10.43
2023-02-20T14:29:26.629Z,10.80
2023-02-20T14:31:56.151Z,10.98
2023-02-20T14:34:31.996Z,10.30
2023-02-20T14:37:22.314Z,13.65
2023-02-20T14:40:14.279Z,12.35
2023-02-20T14:42:45.602Z,11.68
2023-02-20T14:45:30.562Z,12.00
2023-02-20T14:48:00.532Z,14.73
2023-02-20T14:50:32.020Z,10.48
2023-02-20T14:53:01.831Z,12.23
2023-02-20T14:57:55.929Z,11.45
2023-02-20T15:00:34.127Z,12.68
2023-02-20T15:03:01.425Z,15.13
2023-02-20T15:05:34.730Z,16.75
2023-02-20T15:08:19.572Z,13.10
2023-02-20T15:10:52.959Z,14.38
2023-02-20T15:13:27.572Z,13.52
2023-02-20T15:16:06.589Z,14.45
2023-02-20T15:18:41.977Z,14.30
2023-02-20T15:21:10.872Z,12.90
2023-02-20T15:23:39.847Z,13.95
2023-02-20T15:26:34.077Z,14.53
2023-02-20T15:29:18.848Z,14.05
2023-02-20T15:32:01.051Z,14.27
2023-02-20T15:34:31.020Z,13.65
2023-02-20T15:36:59.024Z,14.18
2023-02-20T15:39:27.290Z,12.95
2023-02-20T15:44:22.371Z,12.35
2023-02-20T15:46:49.307Z,12.35
2023-02-20T15:49:20.825Z,12.13
2023-02-20T15:51:52.369Z,14.02
2023-02-20T15:54:21.856Z,13.50
2023-02-20T15:56:48.737Z,14.00
2023-02-20T15:59:15.667Z,16.08
2023-02-20T16:01:42.567Z,19.90
2023-02-20T16:04:20.330Z,19.92
2023-02-20T16:06:47.171Z,20.33
2023-02-20T16:09:14.166Z,17.15
2023-02-20T16:11:47.120Z,27.35
2023-02-20T16:14:15.571Z,14.18
2023-02-20T16:16:47.279Z,15.57
2023-02-20T16:19:24.066Z,16.05
2023-02-20T16:21:59.786Z,14.57
2023-02-20T16:24:26.944Z,14.38
2023-02-20T16:26:54.428Z,15.65
2023-02-20T16:29:28.515Z,16.08
2023-02-20T16:31:55.427Z,13.30
2023-02-20T16:34:25.216Z,16.80
2023-02-20T16:36:53.004Z,36.15
2023-02-20T16:39:26.639Z,16.65
2023-02-20T16:41:58.593Z,29.50
2023-02-20T16:44:39.083Z,23.25
2023-02-20T16:47:07.207Z,17.77
2023-02-20T16:49:37.612Z,18.90
2023-02-20T16:52:17.900Z,21.38
2023-02-20T16:54:49.668Z,16.08
2023-02-20T16:57:17.464Z,20.95
2023-02-20T16:59:44.654Z,23.23
2023-02-20T17:02:16.906Z,21.05
2023-02-20T17:04:44.048Z,19.75
2023-02-20T17:07:11.400Z,18.60
2023-02-20T17:09:44.255Z,23.38
2023-02-20T17:12:16.079Z,17.85
2023-02-20T17:14:43.539Z,23.08
2023-02-20T17:17:10.644Z,19.75
2023-02-20T17:19:39.767Z,19.42
2023-02-20T17:22:08.118Z,19.20
2023-02-20T17:24:35.120Z,23.20
2023-02-20T17:27:02.757Z,25.17
2023-02-20T17:29:29.748Z,19.88
2023-02-20T17:31:56.721Z,22.88
2023-02-20T17:34:23.656Z,20.55
2023-02-20T17:36:50.675Z,19.35
2023-02-20T17:39:20.286Z,21.20
2023-02-20T17:41:49.622Z,20.60
2023-02-20T17:44:19.394Z,19.95
2023-02-20T17:46:49.325Z,19.20
2023-02-20T17:49:16.691Z,23.80
2023-02-20T17:51:44.405Z,20.30
2023-02-20T17:54:12.156Z,19.92
2023-02-20T17:56:44.464Z,24.05
2023-02-20T17:59:12.428Z,26.10
2023-02-20T18:01:39.408Z,27.88
2023-02-20T18:04:06.540Z,29.27
2023-02-20T18:06:33.986Z,29.45
2023-02-20T18:09:02.590Z,29.95
2023-02-20T18:11:29.504Z,30.45
2023-02-20T18:13:57.424Z,29.17
2023-02-20T18:16:26.415Z,38.38
2023-02-20T18:18:53.823Z,36.10
2023-02-20T18:21:26.937Z,36.90
2023-02-20T18:23:54.574Z,41.55
2023-02-20T18:26:21.995Z,36.88
2023-02-20T18:28:49.288Z,35.58
2023-02-20T18:31:20.019Z,39.45
2023-02-20T18:33:47.009Z,40.25
2023-02-20T18:36:14.165Z,36.58
2023-02-20T18:38:41.170Z,40.42
2023-02-20T18:41:12.786Z,38.58
2023-02-20T18:43:43.422Z,36.97
2023-02-20T18:46:10.640Z,40.70
2023-02-20T18:48:37.594Z,41.25
2023-02-20T18:51:04.910Z,39.67
2023-02-20T18:53:31.736Z,42.38
2023-02-20T18:55:58.669Z,43.58
2023-02-20T18:58:27.902Z,42.47
2023-02-20T19:00:55.318Z,39.33
2023-02-20T19:03:22.251Z,38.78
2023-02-20T19:05:54.389Z,33.67
2023-02-20T19:08:23.191Z,39.90
2023-02-20T19:10:50.227Z,34.30
2023-02-20T19:13:17.168Z,35.45
2023-02-20T19:15:44.007Z,34.75
2023-02-20T19:18:10.948Z,34.53
2023-02-20T19:20:37.848Z,38.08
2023-02-20T19:23:04.960Z,32.80
2023-02-20T19:25:31.933Z,34.33
2023-02-20T19:27:58.937Z,35.30
2023-02-20T19:30:25.993Z,35.35
2023-02-20T19:32:52.900Z,40.53
2023-02-20T19:35:19.913Z,36.15
2023-02-20T19:37:46.820Z,36.75
2023-02-20T19:40:14.020Z,40.00
2023-02-20T19:42:41.273Z,36.35
2023-02-20T19:45:08.497Z,36.30
2023-02-20T19:47:35.506Z,37.50
2023-02-20T19:50:02.633Z,39.88
2023-02-20T19:52:29.475Z,37.58
2023-02-20T19:54:56.260Z,36.65
2023-02-20T19:57:23.314Z,40.50
2023-02-20T19:59:51.280Z,37.13
2023-02-20T20:02:18.300Z,40.50
2023-02-20T20:04:45.267Z,44.33
2023-02-20T20:07:12.357Z,38.33
2023-02-20T20:09:39.322Z,36.00
2023-02-20T20:12:30.450Z,36.83
2023-02-20T20:14:57.717Z,40.30
2023-02-20T20:17:24.717Z,35.53
2023-02-20T20:20:00.562Z,36.20
2023-02-20T20:22:29.394Z,34.80
2023-02-20T20:24:56.424Z,36.65
2023-02-20T20:27:23.894Z,32.10
2023-02-20T20:29:51.707Z,32.35
2023-02-20T20:32:20.950Z,32.75
2023-02-20T20:34:52.378Z,26.83
2023-02-20T20:37:24.124Z,24.15
2023-02-20T20:39:55.656Z,26.08
2023-02-20T20:42:26.073Z,23.98
2023-02-20T20:44:54.900Z,23.02
2023-02-20T20:47:22.298Z,22.83
2023-02-20T20:49:49.866Z,20.33
2023-02-20T20:52:17.879Z,21.52
2023-02-20T20:54:52.399Z,21.02
2023-02-20T20:57:21.525Z,18.88
2023-02-20T20:59:51.984Z,19.60
2023-02-20T21:02:19.870Z,17.45
2023-02-20T21:04:49.298Z,17.10
2023-02-20T21:07:19.210Z,17.35
2023-02-20T21:09:46.203Z,18.25
2023-02-20T21:12:15.377Z,21.38
2023-02-20T21:14:43.566Z,18.80
2023-02-20T21:17:12.710Z,20.42
2023-02-20T21:19:41.328Z,24.03
2023-02-20T21:22:08.866Z,23.35
2023-02-20T21:24:37.241Z,28.33
2023-02-20T21:27:05.342Z,18.85
2023-02-20T21:29:34.751Z,20.13
2023-02-20T21:32:02.320Z,25.30
2023-02-20T21:34:29.542Z,19.67
2023-02-20T21:36:57.036Z,23.65
2023-02-20T21:39:24.377Z,21.48
2023-02-20T21:42:10.925Z,21.40
2023-02-20T21:44:39.714Z,22.00
2023-02-20T21:47:10.039Z,24.95
2023-02-20T21:49:43.079Z,22.15
2023-02-20T21:52:10.006Z,24.17
2023-02-20T21:54:36.937Z,22.80
2023-02-20T21:57:03.914Z,26.40
2023-02-20T21:59:31.641Z,25.10
2023-02-20T22:01:58.684Z,23.65
2023-02-20T22:04:26.519Z,23.02
2023-02-20T22:07:12.509Z,23.45
2023-02-20T22:09:58.788Z,25.38
2023-02-20T22:12:44.235Z,28.98
2023-02-20T22:15:32.334Z,23.13
2023-02-20T22:18:17.787Z,25.08
2023-02-20T22:21:03.398Z,23.33
2023-02-20T22:23:48.855Z,22.73
2023-02-20T22:26:35.784Z,21.67
2023-02-20T22:29:21.789Z,23.95
2023-02-20T22:32:07.555Z,23.60
2023-02-20T22:35:05.808Z,22.02
2023-02-20T22:37:56.823Z,25.02
2023-02-20T22:40:42.514Z,23.38
2023-02-20T22:43:28.046Z,25.23
2023-02-20T22:46:13.479Z,26.45
2023-02-20T22:48:58.667Z,23.55
2023-02-20T22:51:44.338Z,23.60
2023-02-20T22:54:29.847Z,25.08
2023-02-20T22:57:16.078Z,24.98
2023-02-20T23:00:02.355Z,23.58
2023-02-20T23:02:49.110Z,21.20
2023-02-20T23:05:34.511Z,23.42
2023-02-20T23:08:26.297Z,21.10
2023-02-20T23:11:12.502Z,22.02
2023-02-20T23:13:58.104Z,24.67
2023-02-20T23:16:44.082Z,26.08
2023-02-20T23:19:30.708Z,21.17
2023-02-20T23:22:16.251Z,24.40
2023-02-20T23:25:01.887Z,24.17
2023-02-20T23:27:47.302Z,23.70
2023-02-20T23:30:33.332Z,24.85
2023-02-20T23:33:18.944Z,20.63
2023-02-20T23:36:04.267Z,23.88
2023-02-20T23:38:49.725Z,21.88
2023-02-20T23:41:35.076Z,23.83
2023-02-20T23:44:24.080Z,20.80
2023-02-20T23:47:09.536Z,23.58
2023-02-20T23:49:54.945Z,21.13
2023-02-20T23:52:40.513Z,20.70
2023-02-20T23:55:26.078Z,22.17
2023-02-20T23:58:11.387Z,19.80
